createdAt,value
2018-05-31T16:38:14.703Z,63.80
2018-05-31T16:40:42.605Z,63.70
2018-05-31T16:43:17.409Z,65.60
2018-05-31T16:45:45.835Z,65.50
2018-05-31T16:48:13.639Z,66.10
2018-05-31T16:50:42.218Z,66.50
2018-05-31T16:53:10.691Z,66.90
2018-05-31T16:55:39.311Z,67.60
2018-05-31T16:58:07.929Z,67.40
2018-05-31T17:00:35.521Z,68.00
2018-05-31T17:03:03.255Z,68.10
2018-05-31T17:05:30.937Z,69.00
2018-05-31T17:07:58.695Z,68.30
2018-05-31T17:10:27.037Z,68.80
2018-05-31T17:12:54.681Z,69.30
2018-05-31T17:15:22.521Z,69.80
2018-05-31T17:17:50.828Z,70.90
2018-05-31T17:20:18.395Z,70.10
2018-05-31T17:22:46.032Z,70.10
2018-05-31T17:25:14.381Z,70.10
2018-05-31T17:27:42.467Z,70.40
2018-05-31T17:30:10.259Z,70.40
2018-05-31T17:32:40.077Z,70.50
2018-05-31T17:35:07.820Z,70.50
2018-05-31T17:37:35.585Z,70.50
2018-05-31T17:40:03.906Z,70.80
2018-05-31T17:42:31.571Z,70.80
2018-05-31T17:44:59.265Z,71.20
2018-05-31T17:47:26.771Z,71.40
2018-05-31T17:49:55.189Z,73.00
2018-05-31T17:52:22.787Z,72.10
2018-05-31T17:54:50.317Z,72.90
2018-05-31T17:57:17.979Z,73.30
2018-05-31T17:59:45.775Z,73.60
2018-05-31T18:02:13.614Z,73.70
2018-05-31T18:04:41.311Z,74.10
2018-05-31T18:07:08.983Z,74.80
2018-05-31T18:09:36.731Z,76.00
2018-05-31T18:12:04.720Z,76.90
2018-05-31T18:14:32.342Z,78.00
2018-05-31T18:17:00.185Z,79.00
2018-05-31T18:19:28.055Z,80.20
2018-05-31T18:21:56.528Z,81.30
2018-05-31T18:24:24.323Z,81.50
2018-05-31T18:26:52.124Z,81.80
2018-05-31T18:29:19.710Z,81.90
2018-05-31T18:31:48.294Z,81.30
2018-05-31T18:34:16.992Z,81.50
2018-05-31T18:36:44.944Z,81.40
2018-05-31T18:39:12.684Z,83.00
2018-05-31T18:41:40.306Z,84.60
2018-05-31T18:44:08.160Z,85.80
2018-05-31T18:46:36.819Z,87.20
2018-05-31T18:49:04.626Z,87.20
2018-05-31T18:51:32.935Z,87.70
2018-05-31T18:54:00.785Z,87.30
2018-05-31T18:56:28.463Z,87.10
2018-05-31T18:58:56.452Z,87.40
2018-05-31T19:01:24.322Z,87.60
2018-05-31T19:03:52.123Z,87.70
2018-05-31T19:06:20.393Z,87.60
2018-05-31T19:08:49.554Z,88.10
2018-05-31T19:11:17.730Z,88.10
2018-05-31T19:13:52.066Z,89.40
2018-05-31T19:16:19.632Z,90.30
2018-05-31T19:18:52.964Z,91.00
2018-05-31T19:21:20.540Z,92.40
2018-05-31T19:23:48.152Z,92.80
2018-05-31T19:26:16.041Z,93.30
2018-05-31T19:28:44.670Z,94.40
2018-05-31T19:31:12.293Z,94.40
2018-05-31T19:33:40.669Z,95.30
2018-05-31T19:36:14.688Z,95.90
2018-05-31T19:38:43.086Z,96.60
2018-05-31T19:41:11.683Z,96.50
2018-05-31T19:43:45.600Z,97.40
2018-05-31T19:46:13.125Z,97.70
2018-05-31T19:48:41.544Z,98.30
2018-05-31T19:51:10.260Z,98.30
2018-05-31T19:53:44.057Z,98.60
2018-05-31T19:59:17.750Z,99.00
2018-05-31T20:02:05.296Z,99.40
2018-05-31T20:04:39.233Z,99.60
2018-05-31T20:09:59.846Z,99.90
2018-05-31T20:12:38.752Z,99.90
2018-05-31T20:15:07.839Z,99.90
2018-05-31T20:17:42.109Z,99.90
2018-05-31T20:20:10.482Z,99.90
2018-05-31T20:25:29.883Z,99.90
2018-05-31T20:27:58.574Z,99.90
2018-05-31T20:30:27.604Z,99.90
2018-05-31T20:33:02.323Z,99.90
2018-05-31T20:35:29.904Z,99.90
2018-05-31T20:37:57.415Z,99.90
2018-05-31T20:40:24.952Z,99.90
2018-05-31T20:42:52.638Z,99.90
2018-05-31T20:45:20.427Z,99.90
2018-05-31T20:47:48.753Z,99.90
2018-05-31T20:50:16.446Z,99.90
2018-05-31T20:52:44.219Z,99.90
2018-05-31T20:55:12.555Z,99.90
2018-05-31T20:57:40.260Z,99.90
2018-05-31T21:00:08.130Z,99.90
2018-05-31T21:02:35.689Z,99.90
2018-05-31T21:05:03.282Z,99.90
2018-05-31T21:07:31.214Z,99.90
2018-05-31T21:09:59.399Z,99.90
2018-05-31T21:12:27.282Z,99.90
2018-05-31T21:14:56.074Z,99.90
2018-05-31T21:17:24.586Z,99.90
2018-05-31T21:19:52.387Z,99.90
2018-05-31T21:22:20.087Z,99.90
2018-05-31T21:24:48.397Z,99.90
2018-05-31T21:27:15.949Z,99.90
2018-05-31T21:29:43.753Z,99.90
2018-05-31T21:32:11.305Z,99.90
2018-05-31T21:34:38.988Z,99.90
2018-05-31T21:37:06.654Z,99.90
2018-05-31T21:39:35.116Z,99.90
2018-05-31T21:42:02.876Z,99.90
2018-05-31T21:44:30.510Z,99.90
2018-05-31T21:46:58.161Z,99.90
2018-05-31T21:49:26.495Z,99.90
2018-05-31T21:51:54.197Z,99.90
2018-05-31T21:54:22.610Z,99.90
2018-05-31T21:56:50.380Z,99.90
2018-05-31T21:59:18.148Z,99.90
2018-05-31T22:01:45.809Z,99.90
2018-05-31T22:04:13.612Z,99.90
2018-05-31T22:06:41.378Z,99.90
2018-05-31T22:09:08.894Z,99.90
2018-05-31T22:11:36.655Z,99.90
2018-05-31T22:14:05.050Z,99.90
2018-05-31T22:16:32.579Z,99.90
2018-05-31T22:19:01.807Z,99.90
2018-05-31T22:21:29.346Z,99.90
2018-05-31T22:23:57.477Z,99.90
2018-05-31T22:26:25.224Z,99.90
2018-05-31T22:28:53.899Z,99.90
2018-05-31T22:31:21.493Z,99.90
2018-05-31T22:33:49.008Z,99.90
2018-05-31T22:36:16.639Z,99.90
2018-05-31T22:38:45.253Z,99.90
2018-05-31T22:41:12.883Z,99.90
2018-05-31T22:43:40.447Z,99.90
2018-05-31T22:46:09.081Z,99.90
2018-05-31T22:48:36.719Z,99.90
2018-05-31T22:51:04.323Z,99.90
2018-05-31T22:53:32.063Z,99.90
2018-05-31T22:55:59.746Z,99.90
2018-05-31T22:58:27.329Z,99.90
2018-05-31T23:00:55.211Z,99.90
2018-05-31T23:03:23.636Z,99.90
2018-05-31T23:05:51.451Z,99.90
2018-05-31T23:08:19.150Z,99.90
2018-05-31T23:10:47.593Z,99.90
2018-05-31T23:13:15.191Z,99.90
2018-05-31T23:15:43.575Z,99.90
2018-05-31T23:18:11.153Z,99.90
2018-05-31T23:20:38.887Z,99.90
2018-05-31T23:23:07.230Z,99.90
2018-05-31T23:25:34.949Z,99.90
2018-05-31T23:28:02.775Z,99.90
2018-05-31T23:30:30.544Z,99.90
2018-05-31T23:32:58.253Z,99.90
2018-05-31T23:35:26.235Z,99.90
2018-05-31T23:43:32.719Z,99.90
2018-05-31T23:46:01.134Z,99.90
2018-05-31T23:48:28.867Z,99.90
2018-05-31T23:50:56.628Z,99.90
2018-05-31T23:53:24.963Z,99.90
2018-05-31T23:55:52.690Z,99.90
2018-05-31T23:58:20.413Z,99.90
